createdAt,value
2019-01-11T00:02:01.992Z,10.37
2019-01-11T00:04:33.089Z,11.73
2019-01-11T00:07:04.428Z,11.60
2019-01-11T00:09:35.514Z,12.20
2019-01-11T00:12:06.770Z,8.90
2019-01-11T00:14:37.886Z,10.20
2019-01-11T00:17:09.126Z,9.27
2019-01-11T00:19:40.204Z,9.33
2019-01-11T00:22:11.494Z,14.00
2019-01-11T00:24:43.467Z,9.57
2019-01-11T00:27:14.659Z,11.40
2019-01-11T00:29:46.354Z,11.67
2019-01-11T00:32:17.522Z,11.30
2019-01-11T00:34:48.594Z,14.70
2019-01-11T00:37:19.886Z,10.40
2019-01-11T00:39:52.537Z,12.13
2019-01-11T00:42:23.974Z,11.33
2019-01-11T00:44:55.170Z,11.50
2019-01-11T00:47:26.536Z,11.33
2019-01-11T00:49:57.638Z,11.97
2019-01-11T00:52:28.950Z,14.17
2019-01-11T00:55:00.167Z,10.03
2019-01-11T00:57:31.819Z,10.80
2019-01-11T01:00:02.904Z,10.37
2019-01-11T01:02:34.821Z,11.43
2019-01-11T01:05:06.320Z,13.27
2019-01-11T01:07:37.504Z,11.73
2019-01-11T01:10:08.802Z,12.33
2019-01-11T01:12:40.408Z,13.17
2019-01-11T01:15:14.076Z,11.23
2019-01-11T01:17:45.254Z,13.03
2019-01-11T01:20:16.500Z,12.00
2019-01-11T01:22:48.072Z,11.27
2019-01-11T01:25:19.165Z,10.10
2019-01-11T01:27:50.416Z,9.63
2019-01-11T01:30:21.513Z,12.47
2019-01-11T01:32:57.992Z,13.70
2019-01-11T01:35:29.079Z,11.03
2019-01-11T01:38:00.466Z,13.03
2019-01-11T01:40:33.600Z,10.53
2019-01-11T01:43:04.878Z,11.53
2019-01-11T01:45:35.992Z,11.30
2019-01-11T01:48:07.432Z,14.53
2019-01-11T01:50:38.594Z,11.57
2019-01-11T01:53:09.910Z,14.50
2019-01-11T01:55:41.068Z,11.57
2019-01-11T01:58:12.300Z,10.83
2019-01-11T02:00:43.494Z,10.03
2019-01-11T02:03:14.876Z,9.37
2019-01-11T02:05:45.920Z,9.10
2019-01-11T02:08:17.548Z,9.77
2019-01-11T02:10:48.745Z,10.47
2019-01-11T02:13:19.956Z,9.30
2019-01-11T02:15:51.156Z,9.27
2019-01-11T02:18:22.432Z,10.10
2019-01-11T02:20:53.509Z,9.23
2019-01-11T02:23:24.911Z,9.50
2019-01-11T02:25:55.980Z,10.00
2019-01-11T02:28:27.259Z,8.10
2019-01-11T02:30:58.348Z,8.70
2019-01-11T02:33:29.602Z,8.20
2019-01-11T02:36:00.720Z,11.80
2019-01-11T02:38:32.397Z,10.47
2019-01-11T02:41:03.638Z,8.50
2019-01-11T02:43:34.885Z,12.87
2019-01-11T02:46:05.957Z,9.30
2019-01-11T02:48:37.292Z,9.43
2019-01-11T02:51:08.404Z,10.13
2019-01-11T02:53:39.756Z,9.80
2019-01-11T02:56:10.849Z,10.13
2019-01-11T02:58:42.253Z,10.63
2019-01-11T03:01:13.375Z,9.20
2019-01-11T03:03:44.741Z,11.00
2019-01-11T03:06:15.802Z,13.30
2019-01-11T03:08:47.102Z,12.70
2019-01-11T03:11:18.182Z,10.13
2019-01-11T03:13:49.412Z,10.03
2019-01-11T03:16:20.583Z,9.23
2019-01-11T03:18:52.421Z,10.40
2019-01-11T03:21:23.531Z,12.90
2019-01-11T03:23:54.782Z,11.30
2019-01-11T03:26:25.891Z,12.47
2019-01-11T03:28:57.217Z,9.60
2019-01-11T03:31:37.245Z,9.77
2019-01-11T03:34:08.557Z,11.13
2019-01-11T03:36:39.617Z,9.13
2019-01-11T03:39:10.860Z,9.70
2019-01-11T03:42:07.791Z,8.47
2019-01-11T03:44:39.406Z,10.17
2019-01-11T03:47:10.480Z,9.73
2019-01-11T03:49:41.717Z,10.40
2019-01-11T03:52:12.806Z,9.90
2019-01-11T03:54:44.051Z,8.97
2019-01-11T03:57:15.161Z,10.90
2019-01-11T03:59:46.427Z,13.10
2019-01-11T04:02:17.524Z,13.40
2019-01-11T04:04:48.805Z,10.47
2019-01-11T04:07:19.894Z,10.03
2019-01-11T04:09:51.119Z,9.43
2019-01-11T04:12:22.220Z,9.30
2019-01-11T04:14:53.454Z,10.03
2019-01-11T04:17:24.529Z,10.60
2019-01-11T04:20:01.796Z,10.93
2019-01-11T04:22:30.182Z,10.73
2019-01-11T04:25:11.481Z,9.80
2019-01-11T04:27:42.562Z,14.47
2019-01-11T04:30:18.864Z,12.77
2019-01-11T04:32:50.031Z,14.57
2019-01-11T04:35:21.283Z,14.23
2019-01-11T04:37:52.358Z,17.07
2019-01-11T04:40:23.909Z,15.60
2019-01-11T04:42:54.992Z,19.12
2019-01-11T04:45:26.254Z,13.70
2019-01-11T04:47:57.461Z,18.00
2019-01-11T04:50:28.689Z,14.30
2019-01-11T04:52:59.749Z,15.13
2019-01-11T04:55:31.160Z,13.60
2019-01-11T04:58:02.220Z,12.67
2019-01-11T05:00:33.498Z,14.43
2019-01-11T05:03:04.619Z,13.47
2019-01-11T05:05:36.078Z,12.83
2019-01-11T05:08:07.130Z,14.70
2019-01-11T05:10:39.360Z,16.10
2019-01-11T05:13:36.836Z,15.30
2019-01-11T05:16:08.130Z,16.10
2019-01-11T05:18:39.239Z,14.10
2019-01-11T05:21:10.504Z,16.10
2019-01-11T05:23:42.660Z,15.50
2019-01-11T05:26:14.711Z,18.60
2019-01-11T05:28:45.799Z,16.50
2019-01-11T05:31:17.079Z,16.90
2019-01-11T05:33:48.206Z,18.33
2019-01-11T05:36:21.955Z,17.67
2019-01-11T05:38:53.032Z,18.77
2019-01-11T05:41:24.389Z,21.53
2019-01-11T05:43:55.487Z,18.70
2019-01-11T05:46:26.767Z,19.87
2019-01-11T05:48:59.012Z,24.70
2019-01-11T05:51:30.201Z,24.07
2019-01-11T05:54:01.280Z,24.32
2019-01-11T05:56:32.570Z,23.42
2019-01-11T05:59:07.857Z,21.52
2019-01-11T06:01:40.614Z,25.80
2019-01-11T06:04:29.319Z,23.02
2019-01-11T06:07:18.136Z,28.10
2019-01-11T06:09:49.398Z,21.50
2019-01-11T06:12:20.684Z,21.70
2019-01-11T06:14:51.774Z,20.75
2019-01-11T06:17:23.140Z,21.03
2019-01-11T06:19:54.230Z,23.47
2019-01-11T06:22:25.432Z,20.37
2019-01-11T06:24:57.252Z,20.10
2019-01-11T06:27:28.519Z,20.80
2019-01-11T06:29:59.614Z,22.20
2019-01-11T06:32:30.870Z,23.47
2019-01-11T06:35:02.024Z,23.17
2019-01-11T06:37:34.756Z,29.43
2019-01-11T06:40:07.277Z,23.83
2019-01-11T06:42:38.629Z,22.40
2019-01-11T06:45:13.116Z,28.53
2019-01-11T06:47:44.419Z,22.73
2019-01-11T06:50:15.678Z,23.05
2019-01-11T06:52:47.015Z,23.80
2019-01-11T06:55:18.184Z,22.63
2019-01-11T06:57:49.406Z,22.20
2019-01-11T07:00:20.504Z,24.87
2019-01-11T07:02:51.672Z,20.50
2019-01-11T07:05:22.788Z,26.53
2019-01-11T07:07:54.264Z,23.93
2019-01-11T07:10:25.378Z,24.50
2019-01-11T07:12:56.748Z,18.70
2019-01-11T07:15:28.572Z,24.17
2019-01-11T07:18:00.266Z,21.73
2019-01-11T07:20:31.389Z,22.13
2019-01-11T07:23:02.761Z,22.80
2019-01-11T07:25:33.904Z,26.02
2019-01-11T07:28:05.216Z,27.32
2019-01-11T07:30:54.605Z,24.60
2019-01-11T07:33:25.972Z,27.73
2019-01-11T07:36:19.538Z,22.10
2019-01-11T07:38:50.886Z,26.90
2019-01-11T07:41:21.958Z,25.90
2019-01-11T07:43:53.308Z,29.57
2019-01-11T07:46:24.642Z,25.55
2019-01-11T07:48:56.123Z,25.90
2019-01-11T07:51:46.248Z,27.75
2019-01-11T07:54:17.716Z,27.77
2019-01-11T07:56:48.815Z,27.67
2019-01-11T07:59:20.958Z,27.47
2019-01-11T08:01:52.028Z,29.00
2019-01-11T08:04:23.453Z,28.57
2019-01-11T08:06:54.559Z,22.97
2019-01-11T08:09:25.859Z,25.70
2019-01-11T08:11:56.924Z,25.13
2019-01-11T08:14:28.500Z,31.13
2019-01-11T08:16:59.618Z,26.70
2019-01-11T08:19:30.890Z,26.77
2019-01-11T08:22:04.350Z,27.73
2019-01-11T08:24:37.898Z,27.10
2019-01-11T08:27:21.298Z,30.80
2019-01-11T08:29:52.600Z,28.83
2019-01-11T08:32:24.049Z,25.03
2019-01-11T08:34:55.232Z,29.13
2019-01-11T08:37:26.529Z,32.60
2019-01-11T08:39:57.766Z,27.23
2019-01-11T08:42:29.689Z,32.27
2019-01-11T08:45:01.056Z,34.00
2019-01-11T08:47:32.249Z,26.83
2019-01-11T08:50:03.556Z,28.77
2019-01-11T08:52:34.642Z,28.23
2019-01-11T08:55:06.262Z,27.77
2019-01-11T08:57:37.323Z,28.10
2019-01-11T09:00:10.586Z,25.40
2019-01-11T09:02:41.643Z,26.23
2019-01-11T09:05:13.077Z,28.63
2019-01-11T09:07:44.116Z,25.87
2019-01-11T09:10:22.418Z,35.77
2019-01-11T09:12:49.115Z,30.07
2019-01-11T09:15:20.548Z,25.93
2019-01-11T09:18:19.572Z,31.10
2019-01-11T09:20:52.218Z,34.57
2019-01-11T09:23:23.288Z,31.23
2019-01-11T09:25:54.603Z,28.30
2019-01-11T09:28:25.690Z,27.77
2019-01-11T09:30:57.212Z,27.93
2019-01-11T09:33:28.268Z,31.10
2019-01-11T09:36:03.061Z,31.00
2019-01-11T09:38:34.130Z,32.73
2019-01-11T09:41:07.190Z,29.73
2019-01-11T09:43:38.642Z,31.77
2019-01-11T09:46:10.068Z,27.97
2019-01-11T09:48:43.504Z,29.70
2019-01-11T09:51:15.811Z,33.83
2019-01-11T09:53:47.060Z,27.80
2019-01-11T09:56:18.536Z,36.90
2019-01-11T09:58:49.641Z,32.50
2019-01-11T10:01:21.116Z,31.23
2019-01-11T10:03:52.286Z,36.60
2019-01-11T10:06:23.612Z,33.13
2019-01-11T10:08:54.702Z,32.30
2019-01-11T10:11:26.100Z,39.17
2019-01-11T10:13:57.250Z,31.43
2019-01-11T10:16:28.592Z,31.27
2019-01-11T10:18:59.648Z,33.13
2019-01-11T10:21:30.997Z,30.87
2019-01-11T10:24:02.209Z,28.10
2019-01-11T10:26:33.580Z,41.27
2019-01-11T10:29:04.765Z,29.40
2019-01-11T10:31:37.808Z,29.40
2019-01-11T10:34:08.964Z,33.20
2019-01-11T10:36:40.407Z,29.97
2019-01-11T10:39:11.519Z,29.37
2019-01-11T10:41:42.795Z,28.50
2019-01-11T10:44:13.877Z,29.10
2019-01-11T10:46:49.026Z,23.70
2019-01-11T10:49:18.442Z,25.87
2019-01-11T10:51:49.802Z,29.80
2019-01-11T10:54:37.394Z,23.80
2019-01-11T10:57:08.907Z,26.40
2019-01-11T10:59:39.972Z,25.63
2019-01-11T11:02:11.258Z,24.87
2019-01-11T11:04:42.316Z,24.37
2019-01-11T11:07:14.916Z,27.47
2019-01-11T11:09:45.992Z,24.73
2019-01-11T11:12:17.403Z,26.80
2019-01-11T11:14:48.450Z,26.20
2019-01-11T11:17:19.887Z,28.50
2019-01-11T11:19:50.956Z,25.00
2019-01-11T11:22:22.248Z,28.47
2019-01-11T11:24:53.448Z,23.00
2019-01-11T11:27:24.648Z,23.33
2019-01-11T11:29:55.722Z,23.23
2019-01-11T11:32:41.820Z,23.23
2019-01-11T11:35:12.896Z,22.80
2019-01-11T11:37:44.268Z,24.87
2019-01-11T11:40:15.396Z,24.40
2019-01-11T11:42:46.804Z,20.97
2019-01-11T11:45:19.476Z,17.77
2019-01-11T11:47:50.918Z,20.87
2019-01-11T11:50:22.306Z,17.30
2019-01-11T11:52:54.682Z,23.77
2019-01-11T11:55:25.828Z,22.90
2019-01-11T11:57:57.119Z,23.23
2019-01-11T12:00:29.296Z,21.37
2019-01-11T12:03:00.647Z,21.67
2019-01-11T12:05:31.737Z,20.53
2019-01-11T12:08:05.483Z,19.50
2019-01-11T12:10:36.645Z,18.60
2019-01-11T12:13:08.088Z,17.20
2019-01-11T12:15:39.166Z,19.10
2019-01-11T12:18:10.688Z,21.60
2019-01-11T12:20:41.842Z,16.93
2019-01-11T12:23:13.483Z,17.80
2019-01-11T12:25:44.536Z,18.93
2019-01-11T12:28:15.886Z,18.97
2019-01-11T12:30:47.031Z,19.07
2019-01-11T12:33:18.455Z,25.60
2019-01-11T12:36:01.558Z,20.27
2019-01-11T12:38:33.016Z,23.27
2019-01-11T12:41:04.084Z,21.53
2019-01-11T12:43:35.530Z,22.57
2019-01-11T12:46:06.622Z,19.43
2019-01-11T12:48:37.900Z,18.90
2019-01-11T12:51:09.066Z,15.40
2019-01-11T12:53:41.418Z,18.37
2019-01-11T12:56:12.814Z,22.97
2019-01-11T12:58:44.222Z,20.60
2019-01-11T13:01:15.322Z,19.27
2019-01-11T13:03:46.612Z,22.30
2019-01-11T13:06:17.768Z,23.70
2019-01-11T13:08:49.060Z,19.07
2019-01-11T13:11:20.146Z,21.07
2019-01-11T13:13:51.406Z,20.97
2019-01-11T13:16:22.516Z,24.33
2019-01-11T13:18:53.986Z,21.73
2019-01-11T13:21:25.052Z,21.70
2019-01-11T13:23:56.304Z,20.60
2019-01-11T13:26:29.690Z,18.00
2019-01-11T13:29:00.976Z,25.53
2019-01-11T13:31:32.104Z,18.70
2019-01-11T13:34:03.480Z,21.27
2019-01-11T13:36:34.598Z,16.57
2019-01-11T13:39:11.458Z,32.47
2019-01-11T13:41:43.480Z,23.10
2019-01-11T13:44:14.962Z,18.73
2019-01-11T13:46:46.380Z,18.10
2019-01-11T13:49:17.663Z,22.90
2019-01-11T13:51:48.737Z,19.50
2019-01-11T13:54:22.365Z,19.60
2019-01-11T13:56:53.445Z,18.03
2019-01-11T13:59:24.772Z,17.20
2019-01-11T14:01:55.888Z,20.17
2019-01-11T14:04:27.359Z,19.40
2019-01-11T14:06:58.554Z,20.07
2019-01-11T14:09:30.362Z,26.23
2019-01-11T14:12:01.472Z,18.90
2019-01-11T14:14:32.953Z,24.67
2019-01-11T14:17:04.063Z,21.83
2019-01-11T14:19:35.640Z,19.97
2019-01-11T14:22:06.688Z,22.57
2019-01-11T14:24:38.044Z,17.47
2019-01-11T14:27:09.188Z,20.23
2019-01-11T14:29:40.489Z,19.77
2019-01-11T14:32:11.621Z,20.33
2019-01-11T14:34:42.896Z,18.63
2019-01-11T14:37:13.974Z,38.33
2019-01-11T14:39:45.224Z,20.67
2019-01-11T14:42:16.324Z,20.73
2019-01-11T14:44:47.576Z,20.90
2019-01-11T14:47:18.632Z,20.33
2019-01-11T14:49:49.920Z,21.53
2019-01-11T14:52:21.001Z,22.10
2019-01-11T14:54:52.246Z,22.07
2019-01-11T14:57:23.396Z,25.80
2019-01-11T14:59:54.754Z,20.97
2019-01-11T15:02:25.854Z,18.77
2019-01-11T15:04:57.350Z,25.57
2019-01-11T15:07:28.496Z,24.13
2019-01-11T15:10:02.009Z,19.60
2019-01-11T15:12:33.177Z,20.90
2019-01-11T15:15:04.929Z,23.40
2019-01-11T15:17:36.166Z,22.00
2019-01-11T15:20:09.706Z,20.43
2019-01-11T15:22:40.880Z,20.93
2019-01-11T15:25:12.266Z,23.00
2019-01-11T15:27:43.354Z,23.73
2019-01-11T15:30:19.537Z,22.40
2019-01-11T15:32:50.764Z,21.80
2019-01-11T15:35:21.966Z,24.30
2019-01-11T15:37:53.036Z,36.10
2019-01-11T15:40:29.434Z,30.40
2019-01-11T15:43:01.563Z,23.77
2019-01-11T15:45:32.874Z,28.83
2019-01-11T15:48:03.940Z,21.67
2019-01-11T15:50:56.216Z,24.30
2019-01-11T15:53:38.283Z,24.03
2019-01-11T15:56:13.574Z,24.10
2019-01-11T15:58:45.080Z,26.10
2019-01-11T16:01:16.465Z,26.10
2019-01-11T16:03:47.554Z,23.93
2019-01-11T16:06:35.606Z,32.67
2019-01-11T16:10:01.706Z,30.40
2019-01-11T16:13:17.401Z,25.83
2019-01-11T16:16:25.145Z,23.37
2019-01-11T16:18:59.202Z,24.50
2019-01-11T16:21:30.299Z,30.03
2019-01-11T16:24:01.586Z,25.90
2019-01-11T16:26:33.868Z,42.87
2019-01-11T16:29:05.283Z,34.70
2019-01-11T16:31:36.459Z,25.10
2019-01-11T16:34:09.889Z,24.30
2019-01-11T16:36:41.128Z,27.53
2019-01-11T16:39:12.518Z,25.23
2019-01-11T16:41:43.585Z,27.30
2019-01-11T16:44:15.949Z,24.47
2019-01-11T16:46:47.104Z,25.30
2019-01-11T16:49:18.420Z,25.00
2019-01-11T16:51:50.419Z,24.70
2019-01-11T16:54:21.746Z,27.67
2019-01-11T16:56:52.827Z,24.30
2019-01-11T16:59:24.230Z,24.60
2019-01-11T17:01:55.340Z,25.80
2019-01-11T17:04:26.721Z,24.40
2019-01-11T17:06:57.879Z,34.27
2019-01-11T17:09:29.346Z,27.90
2019-01-11T17:12:00.466Z,28.03
2019-01-11T17:14:31.786Z,30.43
2019-01-11T17:17:02.847Z,34.17
2019-01-11T17:19:34.082Z,38.63
2019-01-11T17:22:05.176Z,24.50
2019-01-11T17:24:36.638Z,27.63
2019-01-11T17:27:07.830Z,28.53
2019-01-11T17:29:39.182Z,28.20
2019-01-11T17:32:10.289Z,27.80
2019-01-11T17:34:41.610Z,28.70
2019-01-11T17:37:12.729Z,26.23
2019-01-11T17:39:43.995Z,25.23
2019-01-11T17:42:15.095Z,28.23
2019-01-11T17:44:46.442Z,27.57
2019-01-11T17:47:17.540Z,26.33
2019-01-11T17:49:48.786Z,24.80
2019-01-11T17:52:19.951Z,27.63
2019-01-11T17:54:51.319Z,25.80
2019-01-11T17:57:22.409Z,24.77
2019-01-11T17:59:53.774Z,22.90
2019-01-11T18:02:24.899Z,29.33
2019-01-11T18:04:56.160Z,22.97
2019-01-11T18:07:27.294Z,25.03
2019-01-11T18:09:58.759Z,26.57
2019-01-11T18:12:32.248Z,26.27
2019-01-11T18:15:03.746Z,27.10
2019-01-11T18:17:35.295Z,29.87
2019-01-11T18:20:09.686Z,26.50
2019-01-11T18:22:40.988Z,23.00
2019-01-11T18:25:12.281Z,25.20
2019-01-11T18:27:43.445Z,26.53
2019-01-11T18:30:15.588Z,26.50
2019-01-11T18:32:46.778Z,24.97
2019-01-11T18:35:18.024Z,29.77
2019-01-11T18:37:49.157Z,32.10
2019-01-11T18:40:22.857Z,30.30
2019-01-11T18:42:53.991Z,30.70
2019-01-11T18:45:28.877Z,31.53
2019-01-11T18:47:58.165Z,30.13
2019-01-11T18:50:29.437Z,34.90
2019-01-11T18:53:00.507Z,31.97
2019-01-11T18:55:32.096Z,27.70
2019-01-11T18:58:03.514Z,29.43
2019-01-11T19:00:34.832Z,35.93
2019-01-11T19:03:05.918Z,28.27
2019-01-11T19:05:37.214Z,24.17
2019-01-11T19:08:08.307Z,22.93
2019-01-11T19:10:39.748Z,22.43
2019-01-11T19:13:11.693Z,26.47
2019-01-11T19:15:43.166Z,29.03
2019-01-11T19:18:14.384Z,30.33
2019-01-11T19:20:45.780Z,29.18
2019-01-11T19:23:20.423Z,33.43
2019-01-11T19:25:50.298Z,33.40
2019-01-11T19:28:21.373Z,33.80
2019-01-11T19:30:53.196Z,28.10
2019-01-11T19:33:24.304Z,24.37
2019-01-11T19:35:55.870Z,24.57
2019-01-11T19:38:26.942Z,22.73
2019-01-11T19:40:58.604Z,31.60
2019-01-11T19:43:29.748Z,30.00
2019-01-11T19:46:01.191Z,23.73
2019-01-11T19:48:32.267Z,25.70
2019-01-11T19:51:03.607Z,24.77
2019-01-11T19:53:35.757Z,30.90
2019-01-11T19:56:07.233Z,23.97
2019-01-11T19:58:39.626Z,31.17
2019-01-11T20:01:11.140Z,29.30
2019-01-11T20:03:42.366Z,28.50
2019-01-11T20:06:13.685Z,23.33
2019-01-11T20:08:44.955Z,25.20
2019-01-11T20:11:17.618Z,27.02
2019-01-11T20:13:48.698Z,21.70
2019-01-11T20:16:20.152Z,23.23
2019-01-11T20:18:51.300Z,26.43
2019-01-11T20:21:22.710Z,23.00
2019-01-11T20:23:53.808Z,25.67
2019-01-11T20:26:25.102Z,28.23
2019-01-11T20:28:56.184Z,26.83
2019-01-11T20:31:27.691Z,24.50
2019-01-11T20:33:58.820Z,31.03
2019-01-11T20:36:33.210Z,26.10
2019-01-11T20:39:05.021Z,29.50
2019-01-11T20:41:36.875Z,26.63
2019-01-11T20:44:07.969Z,24.30
2019-01-11T20:46:39.962Z,28.23
2019-01-11T20:49:11.044Z,26.37
2019-01-11T20:51:42.300Z,24.80
2019-01-11T20:54:13.427Z,27.13
2019-01-11T20:56:45.594Z,29.90
2019-01-11T20:59:16.708Z,27.67
2019-01-11T21:01:48.041Z,28.40
2019-01-11T21:04:19.139Z,26.90
2019-01-11T21:06:50.420Z,26.30
2019-01-11T21:09:21.490Z,28.83
2019-01-11T21:11:52.950Z,27.37
2019-01-11T21:14:24.032Z,26.67
2019-01-11T21:16:55.540Z,33.20
2019-01-11T21:19:26.631Z,31.23
2019-01-11T21:21:58.024Z,28.90
2019-01-11T21:24:29.147Z,27.17
2019-01-11T21:27:00.514Z,27.97
2019-01-11T21:29:31.586Z,29.20
2019-01-11T21:32:02.922Z,30.10
2019-01-11T21:34:33.978Z,29.40
2019-01-11T21:37:05.173Z,28.07
2019-01-11T21:39:36.320Z,26.00
2019-01-11T21:42:08.298Z,28.50
2019-01-11T21:44:39.585Z,25.43
2019-01-11T21:47:10.834Z,23.27
2019-01-11T21:49:41.950Z,30.23
2019-01-11T21:52:14.424Z,23.40
2019-01-11T21:54:45.673Z,25.68
2019-01-11T21:57:17.002Z,21.53
2019-01-11T21:59:48.128Z,24.03
2019-01-11T22:02:19.424Z,25.37
2019-01-11T22:04:50.840Z,23.80
2019-01-11T22:07:22.139Z,23.47
2019-01-11T22:09:53.281Z,21.03
2019-01-11T22:12:24.996Z,18.60
2019-01-11T22:14:56.178Z,20.47
2019-01-11T22:17:27.706Z,15.27
2019-01-11T22:19:59.797Z,17.47
2019-01-11T22:22:31.089Z,23.20
2019-01-11T22:25:02.341Z,16.47
2019-01-11T22:27:35.050Z,17.60
2019-01-11T22:30:10.457Z,17.50
2019-01-11T22:32:41.638Z,18.17
2019-01-11T22:35:12.757Z,18.77
2019-01-11T22:37:44.102Z,21.20
2019-01-11T22:40:20.502Z,22.70
2019-01-11T22:42:55.914Z,20.53
2019-01-11T22:45:27.160Z,20.17
2019-01-11T22:47:58.427Z,18.87
2019-01-11T22:50:29.692Z,19.73
2019-01-11T22:53:00.902Z,23.10
2019-01-11T22:55:31.996Z,21.57
2019-01-11T22:58:03.173Z,19.70
2019-01-11T23:00:42.019Z,22.87
2019-01-11T23:03:21.102Z,22.53
2019-01-11T23:05:56.111Z,22.77
2019-01-11T23:08:27.306Z,21.93
2019-01-11T23:11:29.137Z,21.10
2019-01-11T23:14:00.419Z,22.40
2019-01-11T23:16:45.573Z,25.53
2019-01-11T23:19:16.932Z,22.30
2019-01-11T23:21:48.045Z,20.47
2019-01-11T23:24:19.256Z,20.83
2019-01-11T23:26:50.474Z,23.40
2019-01-11T23:29:21.820Z,23.47
2019-01-11T23:31:53.008Z,18.57
2019-01-11T23:34:24.208Z,20.77
2019-01-11T23:36:55.300Z,19.83
2019-01-11T23:39:26.629Z,18.00
2019-01-11T23:41:57.759Z,19.20
2019-01-11T23:44:29.089Z,22.60
2019-01-11T23:47:00.232Z,19.73
2019-01-11T23:49:31.563Z,20.47
2019-01-11T23:52:04.158Z,25.23
2019-01-11T23:54:35.600Z,20.60
2019-01-11T23:57:09.026Z,22.03
2019-01-11T23:59:40.352Z,22.50
